Time;durP1;ratioP1;P1;durP2;ratioP2;P2;SDS_P1;SDS_P2;PMS_P1;PMS_P2;Temp;Humidity;BMP_temperature;BMP_pressure;BME280_temperature;BME280_humidity;BME280_pressure;Samples;Min_cycle;Max_cycle;Signal;HPM_P1;HPM_P2
2022/11/29 00:01:00;;;;;;;35.05;11.40;;;;;;;7.75;100.00;98983.28;5079943;28;20035;-82
2022/11/29 00:03:26;;;;;;;38.55;11.63;;;;;;;7.69;100.00;98984.00;5077442;28;20056;-82
2022/11/29 00:05:53;;;;;;;27.67;11.32;;;;;;;7.54;100.00;98990.00;5076676;28;20020;-82
2022/11/29 00:08:23;;;;;;;31.17;11.52;;;;;;;7.57;100.00;98996.69;5075150;28;20077;-83
2022/11/29 00:10:49;;;;;;;46.17;14.82;;;;;;;7.58;100.00;98995.69;5076668;28;20102;-82
2022/11/29 00:13:16;;;;;;;45.65;15.77;;;;;;;7.64;100.00;99001.97;5073512;28;20028;-81
2022/11/29 00:15:41;;;;;;;35.95;15.25;;;;;;;7.66;100.00;99003.44;5076494;28;20039;-82
2022/11/29 00:18:07;;;;;;;34.17;14.80;;;;;;;7.78;100.00;99003.81;5073445;28;20032;-82
2022/11/29 00:20:34;;;;;;;38.88;14.80;;;;;;;7.91;100.00;98991.97;5079340;28;20111;-82
2022/11/29 00:23:00;;;;;;;35.85;14.43;;;;;;;8.00;100.00;99001.34;5063421;28;20028;-82
2022/11/29 00:25:27;;;;;;;38.80;13.88;;;;;;;8.05;100.00;98996.38;5080380;28;20028;-84
2022/11/29 00:27:53;;;;;;;39.30;13.18;;;;;;;8.10;100.00;98994.06;5078191;28;20030;-82
2022/11/29 00:30:19;;;;;;;27.42;11.63;;;;;;;8.14;100.00;98995.31;5080617;28;20064;-82
2022/11/29 00:32:45;;;;;;;36.90;12.48;;;;;;;8.05;100.00;99000.81;5079887;28;20111;-83
2022/11/29 00:35:11;;;;;;;23.42;10.40;;;;;;;7.98;100.00;98998.09;5061357;28;20040;-84
2022/11/29 00:37:38;;;;;;;88.93;13.15;;;;;;;7.84;100.00;99004.94;5071853;28;20044;-82
2022/11/29 00:40:05;;;;;;;31.60;11.35;;;;;;;7.79;100.00;99007.25;5080324;28;20032;-81
2022/11/29 00:42:30;;;;;;;24.08;10.77;;;;;;;7.75;100.00;99012.03;5074638;28;20032;-81
2022/11/29 00:44:56;;;;;;;27.23;11.27;;;;;;;7.78;100.00;99022.13;5072619;28;20021;-81
2022/11/29 00:47:22;;;;;;;155.60;14.43;;;;;;;7.40;100.00;99009.03;5077421;28;20024;-81
2022/11/29 00:49:48;;;;;;;27.90;10.40;;;;;;;7.38;100.00;99016.22;5080178;28;20038;-82
2022/11/29 00:52:13;;;;;;;158.52;16.70;;;;;;;7.24;100.00;99005.53;5084362;28;20032;-82
2022/11/29 00:54:39;;;;;;;117.75;12.57;;;;;;;7.05;100.00;99013.81;5078803;28;20063;-82
2022/11/29 00:57:05;;;;;;;90.57;12.48;;;;;;;7.13;100.00;99014.59;5078769;28;20112;-82
2022/11/29 00:59:30;;;;;;;20.85;9.98;;;;;;;7.23;100.00;99016.16;5074959;28;20046;-82
2022/11/29 01:01:56;;;;;;;24.60;9.68;;;;;;;7.29;100.00;99023.31;5075988;28;20109;-81
2022/11/29 01:04:21;;;;;;;30.30;11.52;;;;;;;7.26;100.00;99019.22;5077905;28;20394;-81
2022/11/29 01:06:50;;;;;;;27.05;10.00;;;;;;;7.25;100.00;99016.81;5076900;28;20397;-81
2022/11/29 01:09:16;;;;;;;23.15;9.70;;;;;;;7.15;100.00;99022.25;5077672;28;20082;-83
2022/11/29 01:11:42;;;;;;;69.68;11.63;;;;;;;7.12;100.00;99022.59;5065394;28;20024;-83
2022/11/29 01:14:07;;;;;;;22.63;8.60;;;;;;;7.06;100.00;99024.09;5079077;28;20538;-82
2022/11/29 01:16:33;;;;;;;94.25;14.20;;;;;;;6.98;100.00;99024.94;5062366;28;20043;-82
2022/11/29 01:18:59;;;;;;;84.15;11.45;;;;;;;6.95;100.00;99022.69;5078367;28;20031;-81
2022/11/29 01:21:24;;;;;;;67.63;10.45;;;;;;;6.84;100.00;99025.66;5081297;28;20497;-81
2022/11/29 01:23:53;;;;;;;21.58;8.55;;;;;;;6.82;100.00;99035.47;5076345;28;20462;-81
2022/11/29 01:26:22;;;;;;;20.38;9.13;;;;;;;6.68;100.00;99032.59;5079673;28;20032;-81
2022/11/29 01:28:50;;;;;;;32.33;9.88;;;;;;;6.69;100.00;99039.44;5079379;28;20119;-80
2022/11/29 01:31:27;;;;;;;78.20;10.90;;;;;;;6.73;100.00;99039.91;5078616;28;20063;-81
2022/11/29 01:33:54;;;;;;;94.20;11.95;;;;;;;6.61;100.00;99044.69;5076011;28;20055;-82
2022/11/29 01:36:21;;;;;;;50.60;10.50;;;;;;;6.63;100.00;99042.72;5077321;28;20039;-82
2022/11/29 01:38:47;;;;;;;50.20;11.38;;;;;;;6.45;100.00;99050.75;5076534;28;20052;-81
2022/11/29 01:41:16;;;;;;;19.67;8.73;;;;;;;6.60;100.00;99050.06;5076181;28;20056;-81
2022/11/29 01:44:06;;;;;;;23.88;9.32;;;;;;;6.74;100.00;99051.16;5073473;28;20496;-82
2022/11/29 01:46:37;;;;;;;97.75;12.23;;;;;;;6.49;100.00;99048.66;5075132;28;20031;-81
2022/11/29 01:49:11;;;;;;;69.18;12.25;;;;;;;6.41;100.00;99052.88;5075605;28;20109;-81
2022/11/29 01:51:43;;;;;;;37.35;10.45;;;;;;;6.44;100.00;99056.97;5081281;28;20507;-82
2022/11/29 01:54:09;;;;;;;29.60;9.65;;;;;;;6.45;100.00;99050.75;5079762;28;20047;-82
2022/11/29 01:56:37;;;;;;;23.65;9.38;;;;;;;6.60;100.00;99061.31;5058702;28;20478;-82
2022/11/29 01:59:07;;;;;;;25.08;8.88;;;;;;;6.65;100.00;99053.78;5078726;28;20465;-82
2022/11/29 02:01:34;;;;;;;25.55;9.93;;;;;;;6.56;100.00;99060.81;5063379;28;20462;-82
2022/11/29 02:04:00;;;;;;;26.13;10.55;;;;;;;6.38;100.00;99053.22;5075855;28;20110;-81
2022/11/29 02:06:28;;;;;;;23.50;10.40;;;;;;;6.38;100.00;99057.59;5082348;28;20055;-83
2022/11/29 02:08:53;;;;;;;27.67;10.60;;;;;;;6.40;100.00;99061.69;5075270;28;20025;-82
2022/11/29 02:11:31;;;;;;;24.33;10.02;;;;;;;6.45;100.00;99062.97;5082867;28;20386;-83
2022/11/29 02:14:38;;;;;;;27.20;10.13;;;;;;;6.51;100.00;99059.72;5077454;28;20502;-82
2022/11/29 02:17:19;;;;;;;23.45;9.45;;;;;;;6.52;100.00;99064.75;5080190;28;20089;-83
2022/11/29 02:19:47;;;;;;;25.08;9.05;;;;;;;6.44;100.00;99072.59;5084163;28;20466;-82
2022/11/29 02:22:21;;;;;;;22.02;8.20;;;;;;;6.71;100.00;99073.16;5080964;28;20473;-82
2022/11/29 02:24:56;;;;;;;;;;;;;;;6.86;100.00;99078.50;5085464;28;20020;-82
2022/11/29 02:27:22;;;;;;;21.95;8.30;;;;;;;6.75;100.00;99090.09;5075721;28;19918;-83
2022/11/29 02:30:12;;;;;;;19.08;8.48;;;;;;;6.74;100.00;99090.28;5083460;28;20032;-82
2022/11/29 02:32:53;;;;;;;21.50;9.68;;;;;;;6.75;100.00;99089.31;5079126;28;20119;-82
2022/11/29 02:35:19;;;;;;;26.38;10.27;;;;;;;6.57;100.00;99093.75;5079348;28;20458;-82
2022/11/29 02:38:19;;;;;;;20.33;8.95;;;;;;;6.58;100.00;99091.97;5082071;28;20097;-82
2022/11/29 02:41:17;;;;;;;21.67;9.50;;;;;;;6.57;100.00;99100.78;5083548;28;20030;-83
2022/11/29 02:44:07;;;;;;;26.05;10.77;;;;;;;6.57;100.00;99108.59;5050478;28;20047;-81
2022/11/29 02:46:53;;;;;;;23.98;11.07;;;;;;;6.39;100.00;99101.78;5080163;28;20029;-83
2022/11/29 02:49:39;;;;;;;26.65;9.75;;;;;;;6.35;100.00;99116.13;5066478;28;20482;-83
2022/11/29 02:52:36;;;;;;;23.70;10.43;;;;;;;6.35;100.00;99125.72;5079766;28;20085;-82
2022/11/29 02:55:41;;;;;;;22.83;9.70;;;;;;;6.35;100.00;99130.94;5076912;28;20024;-82
2022/11/29 02:58:26;;;;;;;20.02;8.75;;;;;;;6.28;100.00;99126.41;5080184;28;20043;-82
2022/11/29 03:01:16;;;;;;;22.45;9.57;;;;;;;6.32;100.00;99134.72;5078706;28;20552;-81
2022/11/29 03:03:50;;;;;;;23.58;9.82;;;;;;;6.10;100.00;99139.63;5075265;28;20503;-81
2022/11/29 03:06:41;;;;;;;24.00;10.63;;;;;;;5.88;100.00;99134.97;5073679;28;20048;-82
2022/11/29 03:09:24;;;;;;;21.73;8.75;;;;;;;6.05;100.00;99130.66;5081443;28;20035;-82
2022/11/29 03:12:01;;;;;;;22.27;9.65;;;;;;;6.09;100.00;99132.78;5080265;28;20035;-82
2022/11/29 03:14:46;;;;;;;22.88;9.82;;;;;;;6.14;100.00;99130.47;5076028;28;20043;-80
2022/11/29 03:17:24;;;;;;;27.50;9.43;;;;;;;6.19;100.00;99132.59;5078118;28;20072;-81
2022/11/29 03:20:12;;;;;;;18.45;8.43;;;;;;;6.20;100.00;99128.19;5080157;28;20029;-81
2022/11/29 03:22:47;;;;;;;19.80;8.63;;;;;;;6.16;100.00;99145.94;5084134;28;20077;-81
2022/11/29 03:25:22;;;;;;;18.55;8.60;;;;;;;6.15;100.00;99149.53;5081776;28;20408;-82
2022/11/29 03:28:16;;;;;;;21.52;9.13;;;;;;;6.27;100.00;99158.66;5076306;28;20028;-82
2022/11/29 03:31:09;;;;;;;19.60;7.75;;;;;;;6.21;100.00;99155.88;5078482;28;20506;-80
2022/11/29 03:33:42;;;;;;;22.93;9.67;;;;;;;6.12;100.00;99153.28;5074879;28;20040;-82
2022/11/29 03:36:20;;;;;;;19.80;8.90;;;;;;;6.18;100.00;99157.00;5079302;28;20277;-81
2022/11/29 03:38:46;;;;;;;21.45;9.70;;;;;;;6.12;100.00;99145.47;5078008;28;20093;-83
2022/11/29 03:41:27;;;;;;;17.90;8.68;;;;;;;6.26;100.00;99153.59;5080288;28;20036;-84
2022/11/29 03:44:09;;;;;;;20.50;9.10;;;;;;;6.25;100.00;99158.00;5076518;28;20031;-82
2022/11/29 03:46:55;;;;;;;18.67;8.38;;;;;;;6.20;100.00;99159.47;5075294;28;20486;-82
2022/11/29 03:49:29;;;;;;;21.92;8.32;;;;;;;6.24;100.00;99168.59;5077774;28;20047;-82
2022/11/29 03:52:32;;;;;;;23.73;8.82;;;;;;;6.25;100.00;99167.59;5079272;28;20033;-81
2022/11/29 03:55:28;;;;;;;25.38;9.57;;;;;;;6.16;100.00;99173.81;5079842;28;20039;-83
2022/11/29 03:58:12;;;;;;;27.13;10.75;;;;;;;6.05;100.00;99172.34;5078845;28;20050;-82
2022/11/29 04:01:13;;;;;;;30.63;11.02;;;;;;;6.26;100.00;99172.66;5079289;28;20091;-82
2022/11/29 04:04:18;;;;;;;20.20;8.65;;;;;;;6.42;100.00;99179.66;5061257;28;20047;-82
2022/11/29 04:07:15;;;;;;;21.38;8.60;;;;;;;6.29;100.00;99189.78;5077564;28;20028;-81
2022/11/29 04:10:05;;;;;;;24.13;8.82;;;;;;;6.20;100.00;99186.38;5078832;28;20047;-81
2022/11/29 04:12:42;;;;;;;21.35;8.77;;;;;;;6.16;100.00;99184.25;5081164;28;20053;-81
2022/11/29 04:15:17;;;;;;;23.17;9.27;;;;;;;6.13;100.00;99195.78;5078218;28;20468;-81
2022/11/29 04:18:01;;;;;;;28.42;10.82;;;;;;;6.12;100.00;99187.16;5063165;28;20032;-81
2022/11/29 04:20:47;;;;;;;26.88;9.68;;;;;;;6.13;100.00;99187.97;5075303;28;20039;-81
2022/11/29 04:23:49;;;;;;;27.40;11.02;;;;;;;6.12;100.00;99192.38;5082224;28;20031;-82
2022/11/29 04:26:36;;;;;;;27.60;10.25;;;;;;;6.17;100.00;99201.50;5072444;28;20028;-82
2022/11/29 04:29:24;;;;;;;22.10;9.00;;;;;;;6.08;100.00;99198.06;5080613;28;20055;-82
2022/11/29 04:31:58;;;;;;;18.77;9.23;;;;;;;6.09;100.00;99210.97;5077387;28;20051;-82
2022/11/29 04:34:45;;;;;;;23.70;10.55;;;;;;;6.06;100.00;99211.25;5075661;28;20037;-81
2022/11/29 04:37:48;;;;;;;20.10;9.45;;;;;;;6.06;100.00;99206.03;5079006;28;20111;-81
2022/11/29 04:40:44;;;;;;;23.88;9.68;;;;;;;6.12;100.00;99221.06;5077111;28;20029;-81
2022/11/29 04:43:22;;;;;;;26.92;11.10;;;;;;;6.09;100.00;99226.59;5077543;28;20100;-82
2022/11/29 04:46:03;;;;;;;23.98;10.20;;;;;;;5.94;100.00;99217.72;5074799;28;20378;-81
2022/11/29 04:48:34;;;;;;;21.30;10.50;;;;;;;5.83;100.00;99218.84;5075460;28;20390;-83
2022/11/29 04:51:00;;;;;;;30.63;10.68;;;;;;;5.71;100.00;99219.13;5078053;28;20046;-82
2022/11/29 04:53:28;;;;;;;28.17;11.15;;;;;;;5.71;100.00;99219.13;5078999;28;20032;-83
2022/11/29 04:56:28;;;;;;;25.83;11.73;;;;;;;5.71;100.00;99224.34;5075146;28;20056;-82
2022/11/29 04:59:19;;;;;;;25.98;10.70;;;;;;;5.72;100.00;99217.34;5045504;28;20048;-84
2022/11/29 05:01:57;;;;;;;26.30;11.48;;;;;;;5.65;100.00;99224.16;5077672;28;20052;-83
2022/11/29 05:04:54;;;;;;;30.42;12.35;;;;;;;5.61;100.00;99223.66;5082923;28;20036;-82
2022/11/29 05:08:02;;;;;;;22.77;10.82;;;;;;;5.76;100.00;99223.88;5084602;28;20020;-83
2022/11/29 05:10:36;;;;;;;25.77;11.10;;;;;;;5.72;100.00;99230.38;5078153;28;20039;-83
2022/11/29 05:13:30;;;;;;;26.58;11.88;;;;;;;5.71;100.00;99229.56;5075857;28;20032;-84
2022/11/29 05:16:08;;;;;;;24.50;9.77;;;;;;;5.63;100.00;99239.13;5077123;28;20470;-81
2022/11/29 05:18:52;;;;;;;24.42;10.60;;;;;;;5.58;100.00;99239.59;5075098;28;20112;-81
2022/11/29 05:21:37;;;;;;;22.35;10.65;;;;;;;5.51;100.00;99244.63;5074188;28;20505;-82
2022/11/29 05:24:14;;;;;;;24.58;9.43;;;;;;;5.61;100.00;99244.50;5080550;28;20435;-82
2022/11/29 05:26:44;;;;;;;23.15;9.60;;;;;;;5.51;100.00;99247.22;5076556;28;20372;-82
2022/11/29 05:29:19;;;;;;;22.08;9.60;;;;;;;5.43;100.00;99250.63;5078166;28;20089;-81
2022/11/29 05:32:06;;;;;;;20.38;9.50;;;;;;;5.46;100.00;99257.28;5072982;28;20048;-82
2022/11/29 05:34:41;;;;;;;49.22;9.73;;;;;;;5.58;100.00;99258.66;5071827;28;20037;-82
2022/11/29 05:37:24;;;;;;;39.75;8.77;;;;;;;5.45;100.00;99249.63;5078055;28;20043;-82
2022/11/29 05:40:24;;;;;;;131.75;11.73;;;;;;;5.22;100.00;99258.78;5074786;28;20029;-81
2022/11/29 05:43:17;;;;;;;111.20;10.40;;;;;;;5.25;100.00;99263.69;5079742;28;20504;-82
2022/11/29 05:45:53;;;;;;;19.08;7.18;;;;;;;5.41;100.00;99270.78;5080245;28;20396;-81
2022/11/29 05:48:46;;;;;;;12.27;5.72;;;;;;;5.52;100.00;99282.72;5079564;28;20025;-82
2022/11/29 05:51:11;;;;;;;12.02;6.45;;;;;;;5.45;100.00;99292.09;5077508;28;20037;-81
2022/11/29 05:53:53;;;;;;;19.20;7.75;;;;;;;5.49;100.00;99293.41;5083461;28;20557;-84
2022/11/29 05:56:33;;;;;;;17.95;7.70;;;;;;;5.46;100.00;99298.94;5080930;28;20036;-82
2022/11/29 05:59:12;;;;;;;22.55;7.68;;;;;;;5.44;100.00;99306.09;5088063;28;20032;-81
2022/11/29 06:02:05;;;;;;;27.67;9.15;;;;;;;5.47;100.00;99305.78;5080480;28;20375;-82
2022/11/29 06:04:45;;;;;;;31.17;8.23;;;;;;;5.51;100.00;99312.31;5077703;28;20389;-82
2022/11/29 06:07:19;;;;;;;18.73;7.88;;;;;;;5.68;100.00;99322.81;5085371;28;20040;-84
2022/11/29 06:09:51;;;;;;;16.80;7.13;;;;;;;5.81;100.00;99312.78;5081426;28;20085;-83
2022/11/29 06:12:22;;;;;;;71.40;9.95;;;;;;;5.72;100.00;99308.53;5078680;28;20052;-83
2022/11/29 06:15:33;;;;;;;24.92;7.50;;;;;;;6.04;100.00;99324.47;5081691;28;20024;-82
2022/11/29 06:18:25;;;;;;;15.15;5.95;;;;;;;6.11;100.00;99323.69;5068533;28;21828;-82
2022/11/29 06:20:57;;;;;;;17.08;5.93;;;;;;;6.14;100.00;99328.56;5077340;28;20029;-83
2022/11/29 06:23:57;;;;;;;23.20;7.23;;;;;;;6.16;100.00;99330.19;5082559;28;20024;-83
2022/11/29 06:26:38;;;;;;;24.58;6.65;;;;;;;6.18;100.00;99329.03;5081759;28;20265;-82
2022/11/29 06:29:22;;;;;;;19.92;7.30;;;;;;;6.38;100.00;99334.81;5078955;28;20047;-82
2022/11/29 06:32:20;;;;;;;22.58;8.45;;;;;;;6.41;100.00;99344.91;5062311;28;20123;-84
2022/11/29 06:35:03;;;;;;;20.20;8.25;;;;;;;6.45;100.00;99352.41;5077072;28;20032;-82
2022/11/29 06:37:42;;;;;;;19.45;8.63;;;;;;;6.46;100.00;99351.44;5078909;28;20064;-83
2022/11/29 06:40:14;;;;;;;22.00;9.80;;;;;;;6.41;100.00;99347.53;5082118;28;20438;-82
2022/11/29 06:42:41;;;;;;;26.77;10.60;;;;;;;6.40;100.00;99343.28;5081187;28;20101;-82
2022/11/29 06:45:12;;;;;;;22.67;9.07;;;;;;;6.46;100.00;99351.44;5081831;28;20052;-81
2022/11/29 06:47:57;;;;;;;22.15;9.85;;;;;;;6.48;100.00;99363.34;5087587;28;20462;-83
2022/11/29 06:50:32;;;;;;;22.67;9.00;;;;;;;6.50;100.00;99373.63;5081535;28;20032;-83
2022/11/29 06:53:29;;;;;;;20.65;8.65;;;;;;;6.51;100.00;99359.63;5081026;28;20020;-82
2022/11/29 06:55:59;;;;;;;19.25;9.18;;;;;;;6.36;100.00;99362.84;5077052;28;20032;-82
2022/11/29 06:58:33;;;;;;;26.55;10.27;;;;;;;6.28;100.00;99368.00;5077715;28;20043;-81
2022/11/29 07:01:08;;;;;;;25.92;10.70;;;;;;;6.24;100.00;99370.13;5081937;28;20048;-82
2022/11/29 07:03:45;;;;;;;31.23;12.70;;;;;;;6.45;100.00;99365.47;5078747;28;20028;-81
2022/11/29 07:06:20;;;;;;;29.45;12.68;;;;;;;6.61;100.00;99359.47;5085731;28;20058;-81
2022/11/29 07:08:47;;;;;;;30.50;12.50;;;;;;;6.61;100.00;99369.91;5082023;28;20020;-81
2022/11/29 07:11:15;;;;;;;25.73;11.77;;;;;;;6.61;100.00;99367.31;5078410;28;20032;-81
2022/11/29 07:13:41;;;;;;;29.58;11.60;;;;;;;6.54;100.00;99385.38;5073596;28;20032;-81
2022/11/29 07:16:21;;;;;;;28.23;11.13;;;;;;;6.32;100.00;99378.94;5077144;28;20439;-82
2022/11/29 07:19:02;;;;;;;24.08;11.07;;;;;;;6.15;100.00;99397.13;5078933;28;20119;-81
2022/11/29 07:21:46;;;;;;;23.88;9.18;;;;;;;6.12;100.00;99402.66;5080126;28;20462;-81
2022/11/29 07:24:25;;;;;;;24.20;10.23;;;;;;;6.12;100.00;99403.50;5082063;28;20108;-83
2022/11/29 07:26:56;;;;;;;21.52;9.38;;;;;;;6.42;100.00;99414.34;5075740;28;20085;-82
2022/11/29 07:29:59;;;;;;;18.90;8.70;;;;;;;6.56;100.00;99412.13;5079779;28;20102;-81
2022/11/29 07:33:02;;;;;;;22.75;10.35;;;;;;;6.30;100.00;99423.44;5080025;28;20069;-83
2022/11/29 07:36:08;;;;;;;32.10;11.00;;;;;;;6.60;100.00;99416.03;5082794;28;20496;-83
2022/11/29 07:38:40;;;;;;;25.92;10.23;;;;;;;6.62;100.00;99414.06;5073291;28;20037;-83
2022/11/29 07:41:43;;;;;;;19.63;9.05;;;;;;;6.60;100.00;99405.59;5079569;28;20446;-84
2022/11/29 07:44:22;;;;;;;30.83;9.97;;;;;;;6.77;100.00;99405.63;5077954;28;20024;-81
2022/11/29 07:46:48;;;;;;;21.33;10.40;;;;;;;6.70;100.00;99401.06;5078445;28;20341;-84
2022/11/29 07:49:14;;;;;;;27.30;12.15;;;;;;;6.60;100.00;99389.94;5078368;28;20123;-86
2022/11/29 07:51:40;;;;;;;34.33;16.42;;;;;;;6.49;100.00;99398.88;5080777;28;20024;-84
2022/11/29 07:54:06;;;;;;;33.00;14.57;;;;;;;6.38;100.00;99394.78;5084755;28;20055;-84
2022/11/29 07:56:32;;;;;;;27.95;13.27;;;;;;;6.33;100.00;99397.06;5075998;28;20032;-85
2022/11/29 07:58:58;;;;;;;24.45;10.75;;;;;;;6.26;100.00;99386.44;5083304;28;20035;-86
2022/11/29 08:01:23;;;;;;;18.35;9.82;;;;;;;6.35;100.00;99397.72;5082159;28;21650;-83
2022/11/29 08:03:49;;;;;;;25.25;10.25;;;;;;;6.45;100.00;99391.53;5063609;28;20478;-84
2022/11/29 08:06:14;;;;;;;18.50;10.15;;;;;;;6.29;100.00;99380.91;5077686;28;20081;-86
2022/11/29 08:08:40;;;;;;;20.33;10.05;;;;;;;6.34;100.00;99385.66;5080171;28;20047;-82
2022/11/29 08:11:11;;;;;;;25.05;11.38;;;;;;;6.52;100.00;99401.16;5063652;28;20109;-82
2022/11/29 08:13:37;;;;;;;28.83;12.15;;;;;;;6.48;100.00;99407.69;5078119;28;20035;-81
2022/11/29 08:16:03;;;;;;;37.42;13.55;;;;;;;6.09;100.00;99408.19;5063023;28;20549;-82
2022/11/29 08:18:29;;;;;;;36.70;13.32;;;;;;;5.85;100.00;99407.88;5080625;28;20034;-82
2022/11/29 08:20:54;;;;;;;32.38;14.35;;;;;;;6.12;100.00;99402.66;5075857;28;20385;-84
2022/11/29 08:23:20;;;;;;;39.80;14.05;;;;;;;5.85;100.00;99418.28;5077056;28;20036;-83
2022/11/29 08:25:45;;;;;;;30.92;13.70;;;;;;;5.81;100.00;99416.97;5076651;28;20826;-82
2022/11/29 08:28:11;;;;;;;35.50;14.13;;;;;;;6.04;100.00;99406.03;5079952;28;20039;-86
2022/11/29 08:30:37;;;;;;;39.30;13.70;;;;;;;6.25;100.00;99413.47;5081160;28;20043;-84
2022/11/29 08:33:03;;;;;;;42.97;14.52;;;;;;;6.45;100.00;99417.59;5078767;28;20078;-83
2022/11/29 08:35:29;;;;;;;37.30;14.18;;;;;;;6.21;100.00;99417.38;5081553;28;20028;-84
2022/11/29 08:37:55;;;;;;;35.13;15.05;;;;;;;6.43;100.00;99415.97;5076015;28;20024;-81
2022/11/29 08:40:20;;;;;;;43.25;15.70;;;;;;;6.63;100.00;99420.91;5080150;28;20479;-82
2022/11/29 08:42:46;;;;;;;48.10;18.65;;;;;;;6.67;100.00;99417.00;5082159;28;20024;-82
2022/11/29 08:45:12;;;;;;;47.30;18.33;;;;;;;6.93;100.00;99416.09;5081097;28;20024;-82
2022/11/29 08:47:40;;;;;;;49.78;17.08;;;;;;;6.97;100.00;99416.56;5061782;28;20089;-81
2022/11/29 08:50:15;;;;;;;48.30;18.40;;;;;;;7.17;100.00;99418.88;5070008;28;20089;-82
2022/11/29 08:55:38;;;;;;;49.53;19.33;;;;;;;7.48;100.00;99429.50;5073115;28;20033;-81
2022/11/29 08:58:06;;;;;;;51.03;19.13;;;;;;;7.48;100.00;99434.72;5080228;28;20493;-81
2022/11/29 09:00:33;;;;;;;35.47;16.63;;;;;;;7.39;100.00;99420.03;5073002;28;20069;-81
2022/11/29 09:05:45;;;;;;;38.35;16.23;;;;;;;7.31;100.00;99427.88;5074423;28;20024;-82
2022/11/29 09:08:11;;;;;;;36.63;16.58;;;;;;;7.17;100.00;99435.38;5080342;28;20032;-83
2022/11/29 09:10:39;;;;;;;36.65;17.02;;;;;;;7.17;100.00;99443.19;5079282;28;20024;-83
2022/11/29 09:13:06;;;;;;;40.08;19.48;;;;;;;7.15;100.00;99434.72;5057552;28;20029;-82
2022/11/29 09:15:31;;;;;;;41.30;17.85;;;;;;;7.18;100.00;99444.03;5078349;28;20059;-82
2022/11/29 09:17:57;;;;;;;36.38;17.38;;;;;;;7.22;100.00;99443.53;5058856;28;20566;-83
2022/11/29 09:20:22;;;;;;;34.78;17.05;;;;;;;7.27;100.00;99451.69;5079186;28;20055;-82
2022/11/29 09:22:48;;;;;;;42.17;17.52;;;;;;;7.35;100.00;99457.91;5053367;28;20032;-83
2022/11/29 09:25:14;;;;;;;36.47;16.85;;;;;;;7.40;100.00;99464.28;5081303;28;20367;-83
2022/11/29 09:27:40;;;;;;;40.38;18.40;;;;;;;7.41;100.00;99459.84;5076782;28;20034;-85
2022/11/29 09:30:07;;;;;;;41.58;17.77;;;;;;;7.52;100.00;99469.97;5079045;28;20462;-84
2022/11/29 09:32:36;;;;;;;38.85;17.02;;;;;;;7.51;100.00;99468.34;5078939;28;20024;-85
2022/11/29 09:35:02;;;;;;;35.97;16.35;;;;;;;7.58;100.00;99471.94;5075807;28;20056;-85
2022/11/29 09:37:28;;;;;;;42.60;18.73;;;;;;;7.52;100.00;99469.97;5066563;28;20028;-85
2022/11/29 09:39:54;;;;;;;36.85;16.95;;;;;;;7.53;100.00;99479.44;5081177;28;20035;-85
2022/11/29 09:42:19;;;;;;;34.33;16.17;;;;;;;7.60;100.00;99482.22;5076610;28;20085;-85
2022/11/29 09:45:03;;;;;;;45.17;17.98;;;;;;;7.67;100.00;99483.19;5084025;28;20035;-86
2022/11/29 09:47:48;;;;;;;42.17;17.60;;;;;;;7.69;100.00;99483.84;5077569;28;20029;-85
2022/11/29 09:50:41;;;;;;;40.55;19.65;;;;;;;7.76;100.00;99484.00;5077872;28;20486;-86
2022/11/29 09:53:48;;;;;;;37.60;18.27;;;;;;;7.79;100.00;99488.91;5073967;28;20521;-86
2022/11/29 09:56:29;;;;;;;37.17;19.40;;;;;;;7.78;100.00;99486.47;5060730;28;20071;-85
2022/11/29 09:59:00;;;;;;;38.45;17.25;;;;;;;7.80;100.00;99487.09;5080536;28;20422;-86
2022/11/29 10:01:31;;;;;;;36.92;16.67;;;;;;;7.80;100.00;99493.13;5077942;28;20048;-86
2022/11/29 10:04:01;;;;;;;35.15;15.52;;;;;;;7.79;100.00;99491.50;5081150;28;20028;-87
2022/11/29 10:06:40;;;;;;;31.60;14.35;;;;;;;7.83;100.00;99495.41;5081719;28;20029;-85
2022/11/29 10:09:21;;;;;;;34.83;16.00;;;;;;;7.85;100.00;99493.44;5064801;28;20036;-86
2022/11/29 10:12:16;;;;;;;31.17;13.98;;;;;;;7.90;100.00;99510.47;5081972;28;20036;-89
2022/11/29 10:14:42;;;;;;;36.17;14.50;;;;;;;7.89;100.00;99527.13;5082463;28;20048;-89
2022/11/29 10:17:33;;;;;;;42.83;16.58;;;;;;;8.03;100.00;99517.78;5083144;28;20028;-89
2022/11/29 10:20:10;;;;;;;37.45;16.33;;;;;;;8.19;100.00;99511.69;5081436;28;20032;-88
2022/11/29 10:22:53;;;;;;;39.72;17.13;;;;;;;8.47;100.00;99512.13;5082089;28;20055;-90
2022/11/29 10:25:35;;;;;;;42.80;15.38;;;;;;;8.62;100.00;99500.97;5061726;28;20489;-89
2022/11/29 10:28:03;;;;;;;39.90;15.95;;;;;;;8.60;100.00;99511.59;5084071;28;20032;-88
2022/11/29 10:30:34;;;;;;;36.67;14.98;;;;;;;8.69;100.00;99494.91;5080805;28;20040;-89
2022/11/29 10:33:01;;;;;;;40.67;15.45;;;;;;;8.80;100.00;99519.88;5068775;28;20381;-88
2022/11/29 10:35:28;;;;;;;58.78;16.88;;;;;;;8.93;100.00;99524.53;5071876;28;20024;-90
2022/11/29 10:37:57;;;;;;;64.28;16.33;;;;;;;9.10;100.00;99521.84;5084668;28;20028;-90
2022/11/29 10:40:32;;;;;;;38.08;14.20;;;;;;;9.16;100.00;99512.50;5081435;28;20042;-88
2022/11/29 10:42:58;;;;;;;37.63;13.38;;;;;;;9.24;100.00;99513.25;5081479;28;20037;-90
2022/11/29 10:45:36;;;;;;;34.67;14.68;;;;;;;9.38;100.00;99521.31;5078685;28;20029;-90
2022/11/29 10:48:17;;;;;;;28.75;11.25;;;;;;;9.48;100.00;99518.47;5084931;28;20035;-90
2022/11/29 10:50:44;;;;;;;29.85;11.05;;;;;;;9.61;100.00;99526.56;5067371;28;20051;-90
2022/11/29 10:53:13;;;;;;;37.08;13.07;;;;;;;9.74;100.00;99518.09;5082355;28;20028;-90
2022/11/29 10:55:47;;;;;;;74.95;14.00;;;;;;;9.73;100.00;99521.72;5085243;28;20040;-88
2022/11/29 10:58:23;;;;;;;21.80;9.88;;;;;;;9.79;100.00;99530.69;5064491;28;20028;-89
2022/11/29 11:00:58;;;;;;;36.70;12.23;;;;;;;9.69;100.00;99538.78;5081078;28;20040;-89
2022/11/29 11:03:23;;;;;;;29.02;11.43;;;;;;;9.68;100.00;99539.78;5063518;28;20077;-88
2022/11/29 11:06:18;;;;;;;48.90;12.05;;;;;;;9.62;100.00;99540.47;5081841;28;20491;-88
2022/11/29 11:08:51;;;;;;;24.38;10.70;;;;;;;9.77;100.00;99528.22;5061295;28;20119;-90
2022/11/29 11:11:31;;;;;;;31.67;12.75;;;;;;;10.07;100.00;99527.47;5065898;28;20497;-89
2022/11/29 11:14:17;;;;;;;31.67;13.30;;;;;;;10.15;100.00;99515.09;5074888;28;20020;-88
2022/11/29 11:16:43;;;;;;;41.20;12.80;;;;;;;10.24;100.00;99520.28;5083664;28;20087;-87
2022/11/29 11:19:32;;;;;;;33.67;13.68;;;;;;;10.26;100.00;99518.28;5068063;28;20079;-89
2022/11/29 11:22:05;;;;;;;41.42;13.15;;;;;;;10.20;100.00;99524.22;5073276;28;20492;-87
2022/11/29 11:24:43;;;;;;;50.67;14.45;;;;;;;10.28;100.00;99518.91;5076973;28;20028;-89
2022/11/29 11:27:32;;;;;;;35.05;14.27;;;;;;;10.43;100.00;99519.75;5070396;28;20036;-90
2022/11/29 11:30:03;;;;;;;41.00;15.98;;;;;;;10.36;100.00;99510.94;5075017;28;20035;-87
2022/11/29 11:32:29;;;;;;;39.15;15.48;;;;;;;10.55;100.00;99527.16;5070048;28;20117;-88
2022/11/29 11:35:04;;;;;;;80.57;16.20;;;;;;;10.46;100.00;99517.78;5068045;28;20120;-88
2022/11/29 11:37:34;;;;;;;38.97;16.73;;;;;;;10.53;100.00;99506.38;5068187;28;20482;-89
2022/11/29 11:40:27;;;;;;;39.75;14.88;;;;;;;10.73;100.00;99525.97;5068638;28;20024;-87
2022/11/29 11:42:58;;;;;;;48.72;17.13;;;;;;;10.66;100.00;99510.97;5064638;28;20039;-90
2022/11/29 11:45:31;;;;;;;105.93;18.15;;;;;;;10.50;100.00;99524.28;5065313;28;20024;-88
2022/11/29 11:48:03;;;;;;;30.92;13.23;;;;;;;10.46;100.00;99517.78;5089254;28;20035;-88
2022/11/29 11:50:39;;;;;;;30.55;13.48;;;;;;;10.47;100.00;99522.03;5082288;28;20032;-88
2022/11/29 11:53:17;;;;;;;33.95;13.82;;;;;;;10.62;100.00;99525.44;5082796;28;20024;-89
2022/11/29 11:55:53;;;;;;;35.38;13.43;;;;;;;10.61;100.00;99523.81;5084468;28;20032;-88
2022/11/29 11:58:27;;;;;;;32.58;13.80;;;;;;;10.76;100.00;99526.44;5094189;28;20032;-88
2022/11/29 12:00:56;;;;;;;34.70;15.90;;;;;;;10.50;100.00;99524.28;5075571;28;20033;-89
2022/11/29 12:03:40;;;;;;;84.88;17.17;;;;;;;10.45;100.00;99510.88;5090828;28;20028;-88
2022/11/29 12:06:25;;;;;;;;;;;;;;;10.74;100.00;99524.97;5085028;28;20024;-88